createdAt,value
2017-10-31T00:00:50.147Z,17.53
2017-10-31T00:05:52.912Z,15.73
2017-10-31T00:10:56.293Z,11.63
2017-10-31T00:15:59.095Z,17.83
2017-10-31T00:21:01.716Z,9.47
2017-10-31T00:26:04.424Z,6.60
2017-10-31T00:31:07.000Z,20.17
2017-10-31T00:36:09.752Z,6.63
2017-10-31T00:41:13.289Z,18.13
2017-10-31T00:46:16.791Z,12.67
2017-10-31T00:51:19.662Z,10.60
2017-10-31T00:56:22.922Z,9.00
2017-10-31T01:01:25.570Z,12.27
2017-10-31T01:06:28.130Z,10.43
2017-10-31T01:11:31.608Z,17.40
2017-10-31T01:16:34.340Z,7.40
2017-10-31T01:21:36.928Z,13.03
2017-10-31T01:26:39.653Z,18.13
2017-10-31T01:31:42.445Z,8.37
2017-10-31T01:36:45.186Z,22.27
2017-10-31T01:41:47.979Z,9.20
2017-10-31T01:46:50.848Z,9.30
2017-10-31T01:51:53.735Z,10.23
2017-10-31T01:56:56.509Z,9.70
2017-10-31T02:01:59.451Z,11.33
2017-10-31T02:07:02.244Z,16.13
2017-10-31T02:12:05.166Z,17.50
2017-10-31T02:17:08.758Z,11.20
2017-10-31T02:22:11.650Z,12.40
2017-10-31T02:27:14.504Z,7.50
2017-10-31T02:32:17.085Z,12.40
2017-10-31T02:37:35.389Z,20.77
2017-10-31T02:42:38.301Z,8.30
2017-10-31T02:47:41.293Z,13.57
2017-10-31T02:52:44.126Z,11.57
2017-10-31T02:57:47.168Z,6.43
2017-10-31T03:02:50.615Z,7.67
2017-10-31T03:07:53.512Z,13.37
2017-10-31T03:12:56.170Z,10.27
2017-10-31T03:17:59.048Z,18.57
2017-10-31T03:23:02.068Z,9.60
2017-10-31T03:28:05.085Z,8.67
2017-10-31T03:33:08.216Z,6.37
2017-10-31T03:38:10.271Z,5.07
2017-10-31T03:43:13.018Z,9.80
2017-10-31T03:48:15.121Z,6.60
2017-10-31T03:53:17.108Z,7.57
2017-10-31T03:58:19.878Z,7.13
2017-10-31T04:03:21.876Z,10.43
2017-10-31T04:08:23.882Z,7.53
2017-10-31T04:13:25.889Z,6.07
2017-10-31T04:18:27.835Z,4.97
2017-10-31T04:23:29.795Z,5.73
2017-10-31T04:28:31.759Z,7.60
2017-10-31T04:33:34.475Z,9.90
2017-10-31T04:38:38.012Z,4.60
2017-10-31T04:43:40.700Z,9.37
2017-10-31T04:48:42.719Z,2.30
2017-10-31T04:53:44.792Z,2.90
2017-10-31T04:58:46.786Z,7.53
2017-10-31T05:03:49.200Z,5.97
2017-10-31T05:08:51.165Z,6.17
2017-10-31T05:13:53.099Z,3.50
2017-10-31T05:18:54.987Z,16.20
2017-10-31T05:23:57.648Z,5.70
2017-10-31T05:28:59.565Z,8.20
2017-10-31T05:34:01.515Z,11.67
2017-10-31T05:39:04.296Z,5.77
2017-10-31T05:44:06.260Z,8.80
2017-10-31T05:49:08.511Z,6.83
2017-10-31T05:54:14.113Z,5.10
2017-10-31T05:59:20.590Z,7.73
2017-10-31T06:04:24.729Z,7.27
2017-10-31T06:09:29.023Z,9.30
2017-10-31T06:14:31.029Z,5.63
2017-10-31T06:19:32.957Z,8.00
2017-10-31T06:24:40.921Z,6.10
2017-10-31T06:29:49.548Z,10.53
2017-10-31T06:34:51.472Z,15.30
2017-10-31T06:39:53.465Z,5.10
2017-10-31T06:44:55.353Z,14.73
2017-10-31T06:49:57.302Z,16.00
2017-10-31T06:54:59.216Z,8.83
2017-10-31T07:00:01.205Z,6.63
2017-10-31T07:05:03.909Z,8.43
2017-10-31T07:10:05.842Z,14.33
2017-10-31T07:15:07.799Z,9.20
2017-10-31T07:20:09.724Z,18.20
2017-10-31T07:25:11.633Z,9.47
2017-10-31T07:30:14.348Z,10.30
2017-10-31T07:35:16.264Z,7.17
2017-10-31T07:40:18.896Z,8.70
2017-10-31T07:45:20.928Z,6.00
2017-10-31T07:50:23.176Z,5.10
2017-10-31T07:55:25.151Z,8.67
2017-10-31T08:00:29.127Z,8.50
2017-10-31T08:05:33.138Z,11.17
2017-10-31T08:10:35.910Z,10.10
2017-10-31T08:15:37.821Z,9.47
2017-10-31T08:20:40.552Z,13.00
2017-10-31T08:25:43.238Z,8.07
2017-10-31T08:30:45.768Z,12.27
2017-10-31T08:35:47.726Z,9.37
2017-10-31T08:40:49.701Z,11.87
2017-10-31T08:51:28.526Z,6.20
2017-10-31T08:56:31.299Z,6.37
2017-10-31T09:01:33.342Z,5.93
2017-10-31T09:06:35.277Z,5.53
2017-10-31T09:11:37.206Z,4.70
2017-10-31T09:16:39.186Z,6.27
2017-10-31T09:21:41.095Z,11.63
2017-10-31T09:26:43.002Z,11.50
2017-10-31T09:31:44.903Z,5.93
2017-10-31T09:36:46.850Z,8.50
2017-10-31T09:41:48.852Z,7.20
2017-10-31T09:46:50.734Z,12.67
2017-10-31T09:51:52.715Z,8.07
2017-10-31T09:56:54.765Z,11.57
2017-10-31T10:01:56.762Z,11.27
2017-10-31T10:06:58.675Z,12.37
2017-10-31T10:12:00.711Z,11.03
2017-10-31T10:17:03.443Z,12.13
2017-10-31T10:22:06.096Z,7.60
2017-10-31T10:27:08.015Z,10.70
2017-10-31T10:32:09.911Z,12.33
2017-10-31T10:37:11.812Z,14.70
2017-10-31T10:42:13.752Z,11.70
2017-10-31T10:47:15.730Z,7.20
2017-10-31T10:52:17.707Z,20.50
2017-10-31T10:57:19.638Z,8.73
2017-10-31T11:02:21.688Z,11.57
2017-10-31T11:07:24.384Z,13.13
2017-10-31T11:12:26.495Z,13.90
2017-10-31T11:17:28.460Z,14.03
2017-10-31T11:22:30.411Z,11.73
2017-10-31T11:27:32.367Z,11.77
2017-10-31T11:32:34.343Z,19.23
2017-10-31T11:37:36.280Z,12.37
2017-10-31T11:42:40.543Z,9.90
2017-10-31T11:47:42.468Z,11.43
2017-10-31T11:52:44.431Z,18.40
2017-10-31T11:57:46.353Z,18.97
2017-10-31T12:02:48.286Z,28.23
2017-10-31T12:07:50.275Z,16.13
2017-10-31T12:12:52.192Z,18.77
2017-10-31T12:17:54.111Z,23.70
2017-10-31T12:22:56.806Z,18.03
2017-10-31T12:27:58.732Z,20.20
2017-10-31T12:33:00.713Z,14.43
2017-10-31T12:38:02.727Z,14.50
2017-10-31T12:43:04.667Z,21.63
2017-10-31T12:48:06.633Z,24.03
2017-10-31T12:53:08.581Z,22.60
2017-10-31T12:58:10.563Z,16.50
2017-10-31T13:03:12.488Z,16.63
2017-10-31T13:08:14.472Z,16.97
2017-10-31T13:13:17.166Z,24.33
2017-10-31T13:18:19.136Z,19.50
2017-10-31T13:23:21.167Z,17.33
2017-10-31T13:28:23.913Z,17.73
2017-10-31T13:33:26.964Z,24.00
2017-10-31T13:38:29.929Z,21.37
2017-10-31T13:43:32.888Z,18.60
2017-10-31T13:48:35.100Z,26.53
2017-10-31T13:53:36.992Z,24.03
2017-10-31T13:58:39.131Z,29.27
2017-10-31T14:03:42.468Z,24.70
2017-10-31T14:08:45.951Z,21.80
2017-10-31T14:13:47.887Z,18.23
2017-10-31T14:18:50.436Z,16.83
2017-10-31T14:23:53.227Z,29.63
2017-10-31T14:28:55.175Z,24.13
2017-10-31T14:33:57.100Z,21.40
2017-10-31T14:38:59.064Z,19.30
2017-10-31T14:44:01.720Z,25.30
2017-10-31T14:49:03.690Z,20.60
2017-10-31T14:54:05.637Z,24.80
2017-10-31T14:59:07.595Z,23.60
2017-10-31T15:04:10.281Z,33.27
2017-10-31T15:09:12.184Z,27.50
2017-10-31T15:14:14.112Z,21.03
2017-10-31T15:19:16.061Z,21.60
2017-10-31T15:24:17.987Z,36.97
2017-10-31T15:29:19.889Z,27.80
2017-10-31T15:34:21.826Z,33.70
2017-10-31T15:39:24.484Z,40.20
2017-10-31T15:44:26.424Z,33.40
2017-10-31T15:49:28.356Z,28.77
2017-10-31T15:54:31.089Z,26.83
2017-10-31T15:59:33.735Z,36.40
2017-10-31T16:04:35.651Z,28.87
2017-10-31T16:09:37.556Z,40.47
2017-10-31T16:14:39.500Z,30.77
2017-10-31T16:19:42.230Z,31.43
2017-10-31T16:24:44.883Z,25.10
2017-10-31T16:29:46.804Z,27.60
2017-10-31T16:34:48.753Z,26.40
2017-10-31T16:39:51.409Z,35.90
2017-10-31T16:44:53.396Z,32.97
2017-10-31T16:49:55.315Z,24.03
2017-10-31T16:54:57.238Z,30.30
2017-10-31T16:59:59.146Z,26.30
2017-10-31T17:05:01.049Z,27.13
2017-10-31T17:10:03.080Z,21.07
2017-10-31T17:15:05.025Z,25.07
2017-10-31T17:20:06.942Z,32.53
2017-10-31T17:25:08.903Z,33.87
2017-10-31T17:30:11.704Z,22.83
2017-10-31T17:35:13.622Z,23.57
2017-10-31T17:40:15.558Z,22.30
2017-10-31T17:45:17.735Z,23.80
2017-10-31T17:50:19.816Z,23.87
2017-10-31T17:55:21.781Z,21.30
2017-10-31T18:00:23.844Z,19.93
2017-10-31T18:05:25.860Z,33.07
2017-10-31T18:10:28.516Z,32.33
2017-10-31T18:15:30.468Z,31.73
2017-10-31T18:20:32.419Z,27.83
2017-10-31T18:25:34.808Z,27.73
2017-10-31T18:30:42.455Z,28.97
2017-10-31T18:35:50.030Z,28.00
2017-10-31T18:40:53.009Z,27.60
2017-10-31T18:45:55.768Z,33.93
2017-10-31T18:50:59.961Z,39.47
2017-10-31T18:56:04.129Z,30.97
2017-10-31T19:01:07.888Z,30.20
2017-10-31T19:06:11.873Z,38.70
2017-10-31T19:11:18.629Z,32.43
2017-10-31T19:16:25.413Z,37.87
2017-10-31T19:21:28.503Z,35.03
2017-10-31T19:26:31.136Z,37.50
2017-10-31T19:31:33.784Z,34.17
2017-10-31T19:36:37.583Z,41.37
2017-10-31T19:41:44.930Z,31.00
2017-10-31T19:46:57.249Z,41.63
2017-10-31T19:52:05.680Z,44.97
2017-10-31T19:57:12.030Z,40.70
2017-10-31T20:02:19.645Z,49.37
2017-10-31T20:07:29.426Z,42.77
2017-10-31T20:12:39.601Z,43.20
2017-10-31T20:17:51.524Z,61.07
2017-10-31T20:22:54.595Z,43.50
2017-10-31T20:27:57.236Z,45.43
2017-10-31T20:33:00.285Z,44.33
2017-10-31T20:38:03.301Z,50.23
2017-10-31T20:43:06.896Z,44.90
2017-10-31T20:48:08.868Z,47.43
2017-10-31T20:53:14.899Z,46.93
2017-10-31T20:58:17.070Z,45.63
2017-10-31T21:03:21.055Z,48.77
2017-10-31T21:08:22.969Z,51.47
2017-10-31T21:13:25.076Z,48.00
2017-10-31T21:18:27.770Z,52.80
2017-10-31T21:23:30.473Z,60.67
2017-10-31T21:28:34.044Z,51.43
2017-10-31T21:33:36.582Z,49.87
2017-10-31T21:38:39.310Z,58.40
2017-10-31T21:43:42.174Z,57.90
2017-10-31T21:48:45.573Z,65.03
2017-10-31T21:53:48.129Z,56.87
2017-10-31T21:58:51.839Z,52.50
2017-10-31T22:03:53.800Z,55.93
2017-10-31T22:08:55.729Z,57.57
2017-10-31T22:13:57.642Z,52.93
2017-10-31T22:18:59.567Z,55.57
2017-10-31T22:24:01.602Z,55.90
2017-10-31T22:29:04.250Z,46.77
2017-10-31T22:34:06.315Z,50.17
2017-10-31T22:39:08.304Z,48.00
2017-10-31T22:44:10.193Z,52.03
2017-10-31T22:49:12.076Z,41.47
2017-10-31T22:54:13.981Z,44.03
2017-10-31T22:59:15.896Z,46.20
2017-10-31T23:04:17.781Z,40.30
2017-10-31T23:09:19.704Z,47.73
2017-10-31T23:14:21.643Z,59.53
2017-10-31T23:19:23.529Z,59.87
2017-10-31T23:24:25.547Z,49.83
2017-10-31T23:29:28.213Z,51.30
2017-10-31T23:34:30.755Z,47.70
2017-10-31T23:39:32.668Z,45.73
2017-10-31T23:44:34.592Z,51.03
2017-10-31T23:49:36.567Z,46.17
2017-10-31T23:54:38.551Z,44.60
2017-10-31T23:59:40.432Z,40.60
